createdAt,value
2018-06-05T00:01:49.410Z,94.60
2018-06-05T00:04:17.571Z,94.50
2018-06-05T00:06:45.733Z,94.40
2018-06-05T00:09:13.872Z,94.40
2018-06-05T00:11:42.041Z,94.20
2018-06-05T00:14:10.180Z,93.80
2018-06-05T00:16:38.327Z,93.70
2018-06-05T00:19:06.473Z,94.00
2018-06-05T00:21:34.656Z,94.10
2018-06-05T00:24:02.787Z,93.50
2018-06-05T00:26:30.939Z,93.40
2018-06-05T00:28:59.080Z,93.50
2018-06-05T00:31:27.248Z,92.90
2018-06-05T00:33:55.392Z,92.70
2018-06-05T00:36:23.531Z,93.00
2018-06-05T00:38:51.694Z,93.00
2018-06-05T00:41:19.836Z,93.20
2018-06-05T00:43:47.979Z,93.10
2018-06-05T00:46:16.747Z,93.10
2018-06-05T00:48:44.905Z,93.30
2018-06-05T00:51:24.526Z,93.50
2018-06-05T00:53:52.671Z,93.00
2018-06-05T00:56:21.295Z,93.20
2018-06-05T00:58:49.464Z,93.20
2018-06-05T01:01:17.692Z,92.90
2018-06-05T01:03:46.399Z,92.80
2018-06-05T01:06:14.560Z,92.80
2018-06-05T01:08:42.764Z,93.30
2018-06-05T01:11:10.921Z,93.50
2018-06-05T01:13:39.063Z,93.80
2018-06-05T01:16:07.203Z,94.10
2018-06-05T01:18:35.365Z,93.90
2018-06-05T01:21:03.550Z,93.90
2018-06-05T01:23:31.708Z,93.90
2018-06-05T01:25:59.855Z,93.40
2018-06-05T01:28:28.007Z,93.10
2018-06-05T01:30:56.574Z,93.30
2018-06-05T01:33:24.750Z,93.20
2018-06-05T01:35:52.887Z,93.00
2018-06-05T01:38:21.023Z,93.20
2018-06-05T01:40:49.152Z,93.40
2018-06-05T01:43:17.281Z,93.60
2018-06-05T01:45:45.398Z,93.40
2018-06-05T01:48:13.555Z,93.10
2018-06-05T01:50:41.679Z,93.20
2018-06-05T01:53:09.836Z,93.00
2018-06-05T01:55:37.967Z,93.20
2018-06-05T01:58:06.669Z,93.30
2018-06-05T02:00:34.796Z,93.20
2018-06-05T02:03:02.967Z,93.00
2018-06-05T02:05:31.091Z,93.20
2018-06-05T02:08:00.096Z,93.00
2018-06-05T02:10:28.231Z,93.30
2018-06-05T02:12:56.423Z,93.10
2018-06-05T02:15:24.571Z,92.80
2018-06-05T02:17:52.701Z,92.80
2018-06-05T02:20:20.840Z,92.70
2018-06-05T02:22:48.972Z,92.70
2018-06-05T02:25:17.096Z,92.80
2018-06-05T02:27:45.248Z,92.80
2018-06-05T02:30:13.395Z,93.20
2018-06-05T02:32:41.532Z,92.80
2018-06-05T02:35:09.671Z,92.60
2018-06-05T02:37:37.788Z,92.70
2018-06-05T02:40:05.943Z,92.80
2018-06-05T02:42:34.197Z,92.70
2018-06-05T02:45:02.351Z,93.10
2018-06-05T02:47:30.509Z,93.20
2018-06-05T02:49:59.168Z,92.50
2018-06-05T02:52:27.352Z,92.90
2018-06-05T02:54:55.502Z,93.00
2018-06-05T02:57:23.643Z,93.10
2018-06-05T02:59:51.808Z,93.40
2018-06-05T03:02:19.954Z,93.60
2018-06-05T03:04:48.093Z,92.90
2018-06-05T03:07:17.040Z,92.70
2018-06-05T03:09:45.221Z,93.10
2018-06-05T03:12:13.375Z,92.70
2018-06-05T03:14:41.524Z,93.00
2018-06-05T03:17:09.672Z,92.90
2018-06-05T03:19:37.811Z,92.80
2018-06-05T03:22:05.963Z,93.30
2018-06-05T03:24:34.108Z,92.90
2018-06-05T03:27:02.288Z,92.60
2018-06-05T03:29:30.439Z,92.40
2018-06-05T03:31:58.583Z,92.50
2018-06-05T03:34:26.826Z,92.80
2018-06-05T03:36:55.945Z,93.10
2018-06-05T03:39:24.111Z,92.90
2018-06-05T03:41:52.268Z,92.40
2018-06-05T03:44:20.583Z,92.70
2018-06-05T03:46:48.736Z,92.80
2018-06-05T03:49:17.110Z,93.40
2018-06-05T03:51:45.333Z,93.20
2018-06-05T03:54:13.499Z,93.30
2018-06-05T03:56:41.652Z,93.60
2018-06-05T03:59:09.808Z,94.10
2018-06-05T04:01:37.968Z,94.20
2018-06-05T04:04:06.116Z,94.10
2018-06-05T04:06:34.283Z,94.50
2018-06-05T04:09:02.492Z,95.10
2018-06-05T04:11:30.638Z,95.00
2018-06-05T04:13:58.793Z,94.80
2018-06-05T04:18:54.904Z,95.10
2018-06-05T04:21:23.057Z,94.70
2018-06-05T04:23:51.218Z,94.40
2018-06-05T04:26:19.388Z,94.60
2018-06-05T04:28:47.551Z,94.40
2018-06-05T04:31:15.700Z,94.30
2018-06-05T04:33:43.862Z,94.20
2018-06-05T04:36:12.040Z,94.60
2018-06-05T04:38:40.399Z,94.40
2018-06-05T04:41:08.543Z,94.30
2018-06-05T04:43:36.675Z,94.30
2018-06-05T04:46:04.856Z,94.10
2018-06-05T04:48:33.006Z,94.10
2018-06-05T04:51:01.252Z,94.20
2018-06-05T04:53:29.360Z,94.30
2018-06-05T04:55:57.495Z,94.10
2018-06-05T04:58:25.727Z,93.90
2018-06-05T05:00:53.879Z,94.20
2018-06-05T05:03:22.020Z,94.20
2018-06-05T05:05:50.155Z,94.20
2018-06-05T05:08:18.323Z,93.90
2018-06-05T05:13:14.451Z,94.10
2018-06-05T05:15:42.587Z,94.10
2018-06-05T05:18:10.718Z,94.70
2018-06-05T05:20:38.888Z,94.60
2018-06-05T05:23:07.023Z,95.70
2018-06-05T05:25:35.159Z,95.30
2018-06-05T05:28:03.291Z,95.00
2018-06-05T05:30:32.455Z,95.60
2018-06-05T05:33:00.577Z,95.30
2018-06-05T05:35:28.746Z,95.30
2018-06-05T05:37:56.929Z,95.00
2018-06-05T05:40:25.115Z,94.80
2018-06-05T05:42:53.291Z,95.00
2018-06-05T05:45:21.468Z,94.60
2018-06-05T05:47:49.638Z,94.50
2018-06-05T05:50:17.793Z,95.00
2018-06-05T05:52:45.951Z,94.60
2018-06-05T05:55:14.152Z,94.10
2018-06-05T05:57:42.286Z,94.30
2018-06-05T06:00:10.459Z,94.80
2018-06-05T06:02:38.654Z,94.70
2018-06-05T06:05:06.845Z,94.70
2018-06-05T06:07:35.037Z,94.30
2018-06-05T06:10:03.201Z,94.10
2018-06-05T06:12:31.346Z,94.10
2018-06-05T06:14:59.513Z,94.20
2018-06-05T06:17:27.677Z,94.10
2018-06-05T06:19:55.932Z,93.70
2018-06-05T06:22:24.097Z,93.50
2018-06-05T06:24:52.252Z,93.10
2018-06-05T06:27:20.387Z,93.40
2018-06-05T06:29:48.519Z,93.60
2018-06-05T06:32:17.460Z,93.10
2018-06-05T06:34:45.715Z,93.00
2018-06-05T06:37:14.744Z,93.30
2018-06-05T06:39:42.900Z,93.00
2018-06-05T06:42:11.077Z,92.60
2018-06-05T06:44:39.192Z,92.30
2018-06-05T06:47:07.359Z,92.10
2018-06-05T06:49:35.506Z,92.20
2018-06-05T06:52:03.753Z,91.70
2018-06-05T06:54:32.526Z,91.60
2018-06-05T07:01:56.584Z,91.70
2018-06-05T07:04:24.780Z,91.30
2018-06-05T07:06:52.924Z,91.30
2018-06-05T07:09:21.055Z,90.90
2018-06-05T07:11:49.195Z,91.00
2018-06-05T07:14:17.491Z,91.20
2018-06-05T07:16:45.634Z,92.20
2018-06-05T07:19:13.774Z,91.60
2018-06-05T07:21:42.012Z,91.50
2018-06-05T07:24:10.153Z,91.40
2018-06-05T07:26:38.307Z,91.60
2018-06-05T07:29:06.890Z,91.40
2018-06-05T07:31:35.048Z,91.40
2018-06-05T07:34:03.213Z,91.30
2018-06-05T07:36:31.352Z,92.00
2018-06-05T07:38:59.523Z,91.30
2018-06-05T07:41:27.797Z,91.30
2018-06-05T07:43:55.960Z,91.30
2018-06-05T07:46:25.076Z,91.10
2018-06-05T07:48:53.256Z,90.90
2018-06-05T07:51:21.416Z,90.90
2018-06-05T07:53:49.555Z,90.60
2018-06-05T07:56:17.711Z,90.60
2018-06-05T07:58:45.870Z,90.50
2018-06-05T08:01:14.011Z,90.50
2018-06-05T08:03:42.167Z,90.60
2018-06-05T08:06:10.341Z,90.40
2018-06-05T08:08:38.478Z,90.50
2018-06-05T08:11:06.669Z,90.90
2018-06-05T08:13:34.815Z,90.60
2018-06-05T08:16:02.962Z,90.90
2018-06-05T08:18:31.160Z,90.40
2018-06-05T08:20:59.292Z,90.00
2018-06-05T08:23:27.464Z,89.80
2018-06-05T08:25:55.641Z,89.50
2018-06-05T08:28:23.812Z,89.00
2018-06-05T08:30:51.965Z,89.90
2018-06-05T08:33:20.132Z,89.90
2018-06-05T08:35:48.275Z,89.50
2018-06-05T08:38:16.456Z,89.40
2018-06-05T08:40:44.663Z,89.10
2018-06-05T08:43:12.784Z,89.10
2018-06-05T08:45:40.909Z,88.40
2018-06-05T08:48:09.048Z,89.10
2018-06-05T08:50:37.172Z,89.60
2018-06-05T08:53:05.316Z,88.60
2018-06-05T08:55:33.459Z,89.20
2018-06-05T09:00:29.509Z,88.50
2018-06-05T09:02:57.643Z,89.30
2018-06-05T09:05:25.817Z,90.00
2018-06-05T09:07:53.944Z,89.90
2018-06-05T09:10:22.106Z,89.30
2018-06-05T09:12:50.269Z,89.10
2018-06-05T09:15:18.380Z,90.20
2018-06-05T09:17:46.540Z,90.00
2018-06-05T09:20:14.667Z,89.70
2018-06-05T09:22:42.810Z,89.40
2018-06-05T09:25:10.950Z,89.60
2018-06-05T09:30:07.060Z,87.60
2018-06-05T09:32:35.202Z,87.30
2018-06-05T09:35:03.344Z,86.60
2018-06-05T09:37:31.479Z,86.20
2018-06-05T09:39:59.680Z,86.00
2018-06-05T09:42:27.843Z,86.50
2018-06-05T09:44:56.000Z,85.20
2018-06-05T09:47:24.156Z,84.70
2018-06-05T09:49:52.311Z,85.70
2018-06-05T09:52:20.521Z,84.10
2018-06-05T09:57:16.590Z,83.80
2018-06-05T09:59:44.735Z,81.70
2018-06-05T10:02:12.930Z,82.40
2018-06-05T10:04:41.076Z,82.10
2018-06-05T10:07:09.276Z,83.00
2018-06-05T10:09:37.619Z,82.90
2018-06-05T10:12:05.803Z,82.40
2018-06-05T10:14:34.000Z,83.10
2018-06-05T10:17:02.167Z,82.50
2018-06-05T10:19:30.328Z,84.40
2018-06-05T10:21:58.472Z,85.30
2018-06-05T10:24:26.709Z,82.50
2018-06-05T10:26:54.859Z,81.10
2018-06-05T10:29:23.012Z,80.80
2018-06-05T10:31:51.160Z,79.40
2018-06-05T10:34:19.412Z,79.70
2018-06-05T10:36:47.622Z,81.00
2018-06-05T10:39:15.778Z,80.70
2018-06-05T10:41:43.931Z,80.70
2018-06-05T10:44:12.107Z,79.10
2018-06-05T10:46:40.788Z,80.60
2018-06-05T10:49:08.920Z,80.70
2018-06-05T10:51:37.071Z,80.20
2018-06-05T10:54:05.259Z,80.60
2018-06-05T10:56:33.405Z,80.40
2018-06-05T11:01:29.451Z,77.90
2018-06-05T11:03:57.612Z,78.60
2018-06-05T11:06:25.843Z,78.10
2018-06-05T11:08:53.989Z,79.60
2018-06-05T11:11:22.253Z,78.80
2018-06-05T11:13:50.440Z,79.00
2018-06-05T11:16:18.587Z,79.10
2018-06-05T11:18:46.771Z,79.50
2018-06-05T11:23:43.146Z,78.50
2018-06-05T11:26:11.291Z,78.00
2018-06-05T11:28:40.017Z,78.50
2018-06-05T11:31:08.175Z,77.60
2018-06-05T11:33:36.479Z,78.50
2018-06-05T11:36:04.616Z,78.80
2018-06-05T11:38:32.775Z,77.40
2018-06-05T11:41:00.906Z,78.50
2018-06-05T11:43:29.024Z,77.60
2018-06-05T11:45:57.167Z,77.70
2018-06-05T11:48:25.348Z,77.80
2018-06-05T11:50:53.475Z,77.90
2018-06-05T11:53:21.621Z,77.50
2018-06-05T11:55:49.755Z,78.80
2018-06-05T11:58:20.419Z,78.90
2018-06-05T12:00:48.785Z,78.70
2018-06-05T12:03:16.875Z,76.50
2018-06-05T12:05:45.004Z,75.80
2018-06-05T12:08:13.131Z,76.60
2018-06-05T12:10:41.269Z,76.20
2018-06-05T12:13:09.416Z,75.80
2018-06-05T12:15:37.544Z,75.60
2018-06-05T12:20:33.614Z,76.60
2018-06-05T12:23:01.757Z,77.50
2018-06-05T12:25:29.899Z,77.30
2018-06-05T12:27:58.018Z,76.60
2018-06-05T12:30:26.180Z,76.10
2018-06-05T12:32:54.479Z,77.20
2018-06-05T12:35:22.607Z,76.30
2018-06-05T12:37:50.731Z,74.60
2018-06-05T12:40:18.898Z,75.10
2018-06-05T12:42:47.040Z,73.50
2018-06-05T12:45:15.575Z,73.60
2018-06-05T12:47:43.903Z,73.90
2018-06-05T12:50:12.064Z,72.80
2018-06-05T12:52:40.217Z,74.10
2018-06-05T12:55:08.388Z,73.90
2018-06-05T12:57:36.631Z,72.90
2018-06-05T13:00:04.925Z,74.40
2018-06-05T13:05:01.060Z,71.70
2018-06-05T13:07:29.263Z,72.00
2018-06-05T13:09:57.421Z,74.20
2018-06-05T13:12:25.622Z,72.90
2018-06-05T13:14:53.759Z,72.30
2018-06-05T13:19:49.824Z,72.40
2018-06-05T13:22:18.350Z,71.50
2018-06-05T13:24:46.518Z,71.00
2018-06-05T13:27:14.668Z,69.00
2018-06-05T13:29:42.796Z,67.70
2018-06-05T13:32:10.947Z,70.70
2018-06-05T13:34:39.178Z,70.00
2018-06-05T13:37:07.332Z,69.60
2018-06-05T13:39:35.511Z,69.00
2018-06-05T13:42:03.667Z,68.90
2018-06-05T13:44:31.863Z,69.00
2018-06-05T13:47:00.011Z,67.80
2018-06-05T13:49:28.160Z,65.10
2018-06-05T13:51:56.324Z,63.60
2018-06-05T13:54:24.519Z,62.30
2018-06-05T13:56:52.679Z,63.40
2018-06-05T13:59:20.841Z,60.50
2018-06-05T14:01:49.038Z,62.70
2018-06-05T14:04:17.211Z,60.10
2018-06-05T14:06:45.372Z,60.40
2018-06-05T14:09:13.578Z,60.50
2018-06-05T14:11:41.667Z,60.50
2018-06-05T14:14:09.815Z,62.20
2018-06-05T14:16:37.987Z,58.60
2018-06-05T14:19:06.150Z,57.60
2018-06-05T14:21:34.319Z,53.80
2018-06-05T14:24:02.535Z,54.90
2018-06-05T14:26:30.697Z,52.70
2018-06-05T14:28:58.852Z,51.30
2018-06-05T14:31:27.007Z,53.50
2018-06-05T14:33:55.152Z,55.60
2018-06-05T14:36:23.322Z,53.40
2018-06-05T14:38:51.471Z,51.90
2018-06-05T14:41:19.691Z,52.80
2018-06-05T14:43:47.864Z,53.30
2018-06-05T14:46:16.011Z,54.50
2018-06-05T14:48:44.182Z,54.50
2018-06-05T14:51:12.759Z,57.10
2018-06-05T14:56:08.856Z,55.50
2018-06-05T14:58:37.006Z,56.20
2018-06-05T15:01:05.175Z,56.20
2018-06-05T15:03:33.335Z,55.20
2018-06-05T15:06:01.483Z,57.30
2018-06-05T15:08:29.655Z,57.50
2018-06-05T15:10:57.835Z,58.60
2018-06-05T15:13:25.993Z,58.20
2018-06-05T15:15:54.208Z,59.20
2018-06-05T15:18:22.360Z,59.90
2018-06-05T15:20:50.533Z,59.10
2018-06-05T15:23:18.682Z,58.70
2018-06-05T15:25:46.815Z,60.60
2018-06-05T15:28:14.972Z,61.40
2018-06-05T15:30:43.113Z,58.70
2018-06-05T15:33:11.887Z,59.70
2018-06-05T15:35:40.081Z,59.50
2018-06-05T15:38:08.243Z,61.50
2018-06-05T15:40:36.419Z,58.20
2018-06-05T15:43:04.619Z,58.70
2018-06-05T15:45:32.787Z,59.70
2018-06-05T15:48:00.934Z,59.60
2018-06-05T15:50:29.150Z,59.00
2018-06-05T15:52:57.265Z,59.40
2018-06-05T15:55:25.412Z,60.50
2018-06-05T15:57:53.543Z,61.20
2018-06-05T16:00:21.720Z,60.00
2018-06-05T16:02:49.876Z,59.80
2018-06-05T16:05:18.663Z,60.00
2018-06-05T16:07:46.816Z,60.40
2018-06-05T16:10:14.970Z,61.20
2018-06-05T16:12:43.123Z,61.30
2018-06-05T16:15:11.279Z,62.30
2018-06-05T16:17:39.459Z,62.60
2018-06-05T16:20:07.613Z,62.70
2018-06-05T16:22:35.771Z,61.90
2018-06-05T16:25:03.937Z,61.50
2018-06-05T16:27:32.087Z,60.90
2018-06-05T16:30:00.304Z,60.80
2018-06-05T16:32:28.471Z,61.00
2018-06-05T16:34:56.639Z,62.20
2018-06-05T16:37:24.816Z,61.70
2018-06-05T16:39:53.367Z,62.60
2018-06-05T16:42:21.509Z,61.30
2018-06-05T16:44:49.648Z,60.70
2018-06-05T16:49:53.297Z,60.80
2018-06-05T16:52:21.531Z,61.20
2018-06-05T16:55:23.403Z,61.00
2018-06-05T16:57:51.557Z,62.50
2018-06-05T17:00:19.723Z,61.20
2018-06-05T17:02:47.855Z,62.60
2018-06-05T17:05:16.031Z,62.30
2018-06-05T17:07:44.187Z,64.60
2018-06-05T17:10:12.321Z,63.60
2018-06-05T17:12:40.459Z,63.30
2018-06-05T17:15:08.647Z,63.20
2018-06-05T17:17:36.788Z,64.20
2018-06-05T17:20:04.908Z,65.20
2018-06-05T17:22:33.051Z,66.20
2018-06-05T17:25:01.223Z,66.00
2018-06-05T17:27:29.637Z,66.70
2018-06-05T17:29:58.213Z,67.00
2018-06-05T17:32:32.471Z,67.50
2018-06-05T17:35:12.114Z,67.30
2018-06-05T17:37:40.268Z,66.60
2018-06-05T17:40:08.391Z,66.90
2018-06-05T17:42:36.559Z,67.10
2018-06-05T17:45:04.687Z,67.20
2018-06-05T17:50:00.783Z,69.70
2018-06-05T17:52:28.927Z,70.80
2018-06-05T17:54:57.051Z,71.40
2018-06-05T17:57:25.191Z,71.80
2018-06-05T17:59:53.331Z,71.80
2018-06-05T18:02:21.468Z,71.80
2018-06-05T18:04:49.608Z,72.50
2018-06-05T18:12:14.566Z,73.80
2018-06-05T18:14:49.084Z,74.30
2018-06-05T18:17:17.198Z,75.60
2018-06-05T18:19:45.346Z,74.40
2018-06-05T18:22:13.489Z,75.10
2018-06-05T18:24:41.611Z,74.80
2018-06-05T18:27:09.742Z,75.50
2018-06-05T18:29:37.876Z,76.60
2018-06-05T18:32:06.016Z,76.80
2018-06-05T18:34:34.147Z,77.30
2018-06-05T18:37:02.269Z,76.80
2018-06-05T18:39:30.435Z,77.80
2018-06-05T18:41:58.660Z,77.70
2018-06-05T18:44:26.893Z,78.10
2018-06-05T18:46:55.085Z,78.00
2018-06-05T18:49:23.247Z,78.30
2018-06-05T18:51:51.405Z,78.70
2018-06-05T18:54:19.602Z,78.80
2018-06-05T18:56:47.748Z,78.60
2018-06-05T18:59:15.883Z,78.80
2018-06-05T19:01:44.035Z,78.80
2018-06-05T19:04:12.195Z,79.30
2018-06-05T19:06:40.368Z,78.60
2018-06-05T19:09:08.622Z,78.70
2018-06-05T19:11:36.767Z,79.70
2018-06-05T19:14:04.940Z,79.40
2018-06-05T19:16:33.107Z,80.00
2018-06-05T19:19:01.280Z,79.90
2018-06-05T19:21:29.443Z,79.80
2018-06-05T19:23:57.607Z,80.70
2018-06-05T19:26:25.846Z,80.30
2018-06-05T19:28:54.871Z,80.90
2018-06-05T19:31:23.019Z,81.60
2018-06-05T19:33:51.164Z,81.90
2018-06-05T19:36:19.327Z,82.40
2018-06-05T19:38:47.577Z,83.10
2018-06-05T19:41:15.806Z,83.00
2018-06-05T19:43:43.921Z,83.30
2018-06-05T19:46:12.059Z,83.90
2018-06-05T19:48:40.269Z,85.50
2018-06-05T19:51:08.388Z,85.10
2018-06-05T19:53:36.527Z,86.10
2018-06-05T19:56:04.672Z,86.90
2018-06-05T19:58:32.820Z,87.20
2018-06-05T20:01:00.968Z,88.00
2018-06-05T20:03:29.112Z,88.30
2018-06-05T20:05:57.260Z,89.60
2018-06-05T20:08:25.483Z,89.70
2018-06-05T20:10:53.631Z,89.30
2018-06-05T20:13:21.804Z,89.60
2018-06-05T20:15:49.935Z,89.80
2018-06-05T20:18:18.112Z,90.00
2018-06-05T20:20:47.317Z,89.80
2018-06-05T20:26:02.068Z,89.80
2018-06-05T20:28:30.198Z,88.70
2018-06-05T20:30:58.331Z,89.00
2018-06-05T20:33:26.483Z,89.20
2018-06-05T20:35:54.610Z,89.80
2018-06-05T20:38:22.772Z,89.40
2018-06-05T20:40:50.915Z,89.10
2018-06-05T20:43:19.239Z,89.40
2018-06-05T20:45:47.407Z,90.00
2018-06-05T20:48:15.520Z,90.20
2018-06-05T20:50:43.644Z,90.00
2018-06-05T20:53:11.788Z,90.10
2018-06-05T20:55:39.906Z,89.90
2018-06-05T20:58:08.144Z,90.00
2018-06-05T21:00:36.288Z,90.20
2018-06-05T21:03:05.009Z,90.50
2018-06-05T21:05:33.139Z,90.80
2018-06-05T21:08:01.290Z,91.40
2018-06-05T21:10:29.440Z,91.40
2018-06-05T21:12:57.564Z,91.50
2018-06-05T21:15:25.689Z,91.60
2018-06-05T21:17:53.812Z,92.10
2018-06-05T21:20:21.967Z,91.70
2018-06-05T21:22:50.087Z,91.20
2018-06-05T21:25:19.143Z,91.50
2018-06-05T21:27:47.296Z,91.40
2018-06-05T21:30:15.491Z,91.80
2018-06-05T21:32:43.559Z,92.00
2018-06-05T21:35:11.691Z,92.20
2018-06-05T21:37:39.853Z,92.80
2018-06-05T21:40:08.011Z,92.40
2018-06-05T21:42:36.195Z,92.50
2018-06-05T21:45:04.395Z,92.60
2018-06-05T21:47:32.543Z,92.50
2018-06-05T21:50:00.729Z,92.60
2018-06-05T21:52:28.888Z,92.40
2018-06-05T21:54:57.036Z,92.80
2018-06-05T21:59:53.101Z,93.00
2018-06-05T22:02:21.288Z,93.10
2018-06-05T22:04:49.455Z,93.40
2018-06-05T22:07:17.601Z,93.30
2018-06-05T22:09:46.651Z,93.60
2018-06-05T22:12:14.809Z,93.70
2018-06-05T22:17:34.506Z,93.80
2018-06-05T22:20:02.614Z,93.80
2018-06-05T22:22:30.712Z,93.90
2018-06-05T22:24:58.799Z,93.90
2018-06-05T22:27:26.899Z,93.60
2018-06-05T22:29:55.083Z,93.90
2018-06-05T22:32:23.194Z,94.20
2018-06-05T22:34:51.817Z,93.90
2018-06-05T22:37:19.908Z,94.00
2018-06-05T22:39:48.003Z,94.10
2018-06-05T22:42:16.109Z,93.90
2018-06-05T22:44:44.183Z,94.30
2018-06-05T22:47:12.284Z,94.50
2018-06-05T22:49:40.368Z,94.20
2018-06-05T22:52:08.555Z,94.60
2018-06-05T22:54:36.651Z,94.70
2018-06-05T22:57:04.779Z,94.80
2018-06-05T22:59:32.887Z,94.70
2018-06-05T23:02:00.997Z,94.70
2018-06-05T23:04:29.071Z,94.70
2018-06-05T23:06:57.165Z,95.00
2018-06-05T23:09:25.262Z,95.30
2018-06-05T23:11:53.363Z,95.00
2018-06-05T23:14:21.452Z,95.00
2018-06-05T23:16:49.543Z,95.20
2018-06-05T23:19:17.638Z,95.30
2018-06-05T23:21:45.726Z,95.30
2018-06-05T23:24:13.815Z,95.30
2018-06-05T23:26:41.928Z,95.10
2018-06-05T23:29:10.023Z,95.10
2018-06-05T23:31:38.148Z,95.20
2018-06-05T23:34:06.271Z,95.50
2018-06-05T23:36:34.370Z,95.30
2018-06-05T23:39:02.928Z,95.30
2018-06-05T23:41:31.041Z,95.20
2018-06-05T23:43:59.124Z,95.10
2018-06-05T23:46:27.219Z,95.10
2018-06-05T23:48:55.313Z,95.00
2018-06-05T23:51:23.456Z,95.30
2018-06-05T23:56:25.214Z,95.50
2018-06-05T23:58:53.366Z,95.50
